Time;durP1;ratioP1;P1;durP2;ratioP2;P2;SDS_P1;SDS_P2;PMS_P1;PMS_P2;Temp;Humidity;BMP_temperature;BMP_pressure;BME280_temperature;BME280_humidity;BME280_pressure;Samples;Min_cycle;Max_cycle;Signal;HPM_P1;HPM_P2
2024/03/09 00:00:19;;;;;;;21.00;17.57;;;7.30;1.00;;;;;;5117067;28;20487;-40
2024/03/09 00:02:49;;;;;;;21.33;15.77;;;7.20;1.00;;;;;;5116492;28;20561;-41
2024/03/09 00:05:15;;;;;;;18.00;15.77;;;7.20;1.00;;;;;;5114329;28;20296;-40
2024/03/09 00:07:41;;;;;;;18.80;15.60;;;7.30;5.30;;;;;;5114285;28;20466;-40
2024/03/09 00:10:08;;;;;;;19.77;16.33;;;7.20;13.30;;;;;;5116766;28;20406;-41
2024/03/09 00:12:34;;;;;;;19.67;16.60;;;7.20;20.80;;;;;;5116942;28;20420;-40
2024/03/09 00:15:03;;;;;;;19.17;16.07;;;7.20;30.60;;;;;;5097029;28;20440;-41
2024/03/09 00:17:29;;;;;;;20.77;16.67;;;7.20;41.80;;;;;;5095686;28;20442;-43
2024/03/09 00:19:58;;;;;;;19.37;16.40;;;7.20;51.60;;;;;;5114355;28;20853;-41
2024/03/09 00:22:25;;;;;;;22.03;16.33;;;7.30;64.00;;;;;;5115416;28;20513;-41
2024/03/09 00:24:52;;;;;;;19.00;15.93;;;7.20;76.10;;;;;;5115864;28;20904;-40
2024/03/09 00:27:23;;;;;;;10.57;8.80;;;7.20;94.60;;;;;;5115665;28;20436;-41
2024/03/09 00:29:48;;;;;;;14.00;10.70;;;7.70;99.90;;;;;;5117264;28;20521;-40
2024/03/09 00:32:14;;;;;;;13.60;10.63;;;8.70;1.00;;;;;;5117855;28;20421;-40
2024/03/09 00:34:39;;;;;;;17.37;12.47;;;9.70;99.90;;;;;;5117495;28;20203;-39
2024/03/09 00:37:07;;;;;;;12.50;11.20;;;10.60;1.00;;;;;;5118729;28;20239;-40
2024/03/09 00:39:33;;;;;;;14.60;12.40;;;11.40;1.00;;;;;;5118209;28;20502;-40
2024/03/09 00:41:59;;;;;;;14.33;12.23;;;12.00;52.50;;;;;;5100039;28;20849;-41
2024/03/09 00:44:24;;;;;;;14.00;12.57;;;12.60;1.00;;;;;;5116831;28;20429;-40
2024/03/09 00:46:50;;;;;;;14.63;13.07;;;13.00;1.00;;;;;;5115558;28;20188;-40
2024/03/09 00:49:16;;;;;;;15.33;13.70;;;13.40;99.90;;;;;;5116692;28;20190;-40
2024/03/09 00:51:41;;;;;;;16.17;14.47;;;13.70;59.40;;;;;;5115919;28;20179;-41
2024/03/09 00:54:07;;;;;;;19.63;17.63;;;13.70;1.00;;;;;;5116285;28;20589;-42
2024/03/09 00:56:33;;;;;;;17.97;16.13;;;13.40;1.00;;;;;;5116634;28;20392;-44
2024/03/09 00:59:00;;;;;;;18.43;15.93;;;12.80;1.00;;;;;;5102305;28;20216;-41
2024/03/09 01:01:26;;;;;;;18.50;16.47;;;12.20;1.00;;;;;;5099343;28;20191;-40
2024/03/09 01:03:55;;;;;;;19.77;17.77;;;11.60;1.00;;;;;;5116585;28;20571;-41
2024/03/09 01:06:21;;;;;;;19.67;17.57;;;11.10;1.00;;;;;;5117575;28;20452;-39
2024/03/09 01:08:49;;;;;;;23.37;19.33;;;10.60;1.00;;;;;;5117058;28;20417;-41
2024/03/09 01:11:17;;;;;;;26.13;22.17;;;10.20;1.00;;;;;;5118360;28;20187;-40
2024/03/09 01:13:43;;;;;;;24.27;20.30;;;9.90;1.00;;;;;;5115627;28;20531;-40
2024/03/09 01:16:09;;;;;;;30.27;21.90;;;9.60;1.00;;;;;;5087418;28;20465;-41
2024/03/09 01:18:35;;;;;;;28.53;21.80;;;9.40;1.00;;;;;;5096344;28;20441;-40
2024/03/09 01:21:01;;;;;;;30.53;21.40;;;9.20;1.00;;;;;;5096570;28;20188;-42
2024/03/09 01:23:30;;;;;;;28.27;20.57;;;9.00;1.00;;;;;;5107031;28;20635;-40
2024/03/09 01:25:56;;;;;;;27.87;20.57;;;8.80;1.00;;;;;;5116511;28;20274;-40
2024/03/09 01:28:22;;;;;;;27.93;19.57;;;8.70;1.00;;;;;;5099292;28;20502;-40
2024/03/09 01:30:48;;;;;;;24.33;18.63;;;8.60;1.00;;;;;;5116984;28;20418;-40
2024/03/09 01:33:14;;;;;;;26.63;18.80;;;8.40;1.00;;;;;;5117212;28;20282;-40
2024/03/09 01:35:39;;;;;;;22.23;18.17;;;8.30;1.00;;;;;;5117457;28;20446;-40
2024/03/09 01:38:05;;;;;;;22.23;18.30;;;8.20;1.00;;;;;;5117283;28;20417;-39
2024/03/09 01:40:31;;;;;;;24.00;19.97;;;8.20;1.00;;;;;;5099130;28;20437;-39
2024/03/09 01:42:57;;;;;;;25.70;19.47;;;8.10;16.10;;;;;;5117372;28;20601;-40
2024/03/09 01:45:23;;;;;;;23.47;19.10;;;8.00;41.30;;;;;;5116761;28;20422;-40
2024/03/09 01:47:50;;;;;;;21.50;19.20;;;8.00;86.90;;;;;;5116569;28;20172;-40
2024/03/09 01:50:16;;;;;;;22.97;17.57;;;7.90;99.90;;;;;;5098031;28;20490;-41
2024/03/09 01:52:47;;;;;;;20.53;17.50;;;7.90;99.90;;;;;;5097844;28;20464;-41
2024/03/09 01:55:13;;;;;;;23.77;18.47;;;7.80;99.90;;;;;;5114895;28;20176;-40
2024/03/09 01:57:39;;;;;;;20.90;18.67;;;7.80;99.90;;;;;;5098197;28;20436;-40
2024/03/09 02:00:10;;;;;;;24.00;18.47;;;7.80;99.90;;;;;;5099051;28;20263;-41
2024/03/09 02:02:36;;;;;;;21.30;16.77;;;7.80;99.90;;;;;;5117706;28;20268;-43
2024/03/09 02:05:10;;;;;;;17.80;15.90;;;7.80;99.90;;;;;;5118662;28;20883;-42
2024/03/09 02:07:36;;;;;;;19.20;16.07;;;7.70;99.90;;;;;;5104112;28;20190;-41
2024/03/09 02:10:02;;;;;;;19.20;16.50;;;7.70;99.90;;;;;;5120738;28;20409;-41
2024/03/09 02:12:28;;;;;;;23.13;16.47;;;7.70;99.90;;;;;;5121079;28;20417;-43
2024/03/09 02:14:55;;;;;;;21.73;17.43;;;7.70;99.90;;;;;;5120639;28;20464;-41
2024/03/09 02:17:22;;;;;;;20.80;16.93;;;7.70;99.90;;;;;;5120585;28;20429;-40
2024/03/09 02:19:48;;;;;;;21.47;17.87;;;7.60;99.90;;;;;;5120339;28;20179;-40
2024/03/09 02:22:17;;;;;;;23.37;17.30;;;7.60;99.90;;;;;;5119569;28;20433;-40
2024/03/09 02:24:55;;;;;;;23.20;17.60;;;7.60;99.90;;;;;;5119679;28;20417;-42
2024/03/09 02:27:21;;;;;;;21.23;18.40;;;7.60;99.90;;;;;;5102965;28;20425;-40
2024/03/09 02:29:46;;;;;;;22.30;17.27;;;7.60;99.90;;;;;;5119889;28;20823;-42
2024/03/09 02:32:12;;;;;;;21.27;18.07;;;7.60;1.00;;;;;;5120514;28;20425;-42
2024/03/09 02:34:38;;;;;;;29.83;19.27;;;7.50;1.00;;;;;;5119985;28;20408;-41
2024/03/09 02:37:03;;;;;;;19.30;16.07;;;7.50;1.00;;;;;;5119209;28;20530;-42
2024/03/09 02:39:30;;;;;;;21.43;17.77;;;7.50;1.00;;;;;;5118907;28;20216;-42
2024/03/09 02:41:58;;;;;;;19.50;16.03;;;7.50;1.00;;;;;;5118578;28;20268;-40
2024/03/09 02:44:26;;;;;;;22.50;17.60;;;7.50;1.00;;;;;;5119034;28;20473;-40
2024/03/09 02:46:52;;;;;;;23.30;18.30;;;7.50;1.00;;;;;;5119504;28;20448;-40
2024/03/09 02:49:19;;;;;;;20.23;16.03;;;7.50;1.00;;;;;;5119257;28;20805;-40
2024/03/09 02:51:46;;;;;;;22.87;18.47;;;7.50;1.00;;;;;;5119678;28;20263;-42
2024/03/09 02:54:13;;;;;;;19.53;16.27;;;7.60;1.00;;;;;;5118616;28;20430;-40
2024/03/09 02:56:39;;;;;;;21.40;17.67;;;7.50;1.00;;;;;;5119326;28;20464;-40
2024/03/09 02:59:04;;;;;;;24.00;17.90;;;7.60;1.00;;;;;;5118850;28;20426;-41
2024/03/09 03:01:30;;;;;;;18.87;15.77;;;7.60;1.00;;;;;;5119166;28;20472;-40
2024/03/09 03:03:58;;;;;;;22.87;17.27;;;7.60;1.00;;;;;;5119036;28;20242;-39
2024/03/09 03:06:25;;;;;;;18.70;16.03;;;7.60;1.00;;;;;;5118877;28;20180;-40
2024/03/09 03:09:04;;;;;;;19.70;16.17;;;7.60;1.00;;;;;;5119055;28;20958;-40
2024/03/09 03:11:32;;;;;;;24.10;17.87;;;7.60;1.00;;;;;;5103084;28;20426;-39
2024/03/09 03:13:59;;;;;;;22.17;17.27;;;7.60;1.00;;;;;;5119458;28;20436;-39
2024/03/09 03:16:35;;;;;;;20.03;16.80;;;7.60;1.00;;;;;;5118899;28;20489;-40
2024/03/09 03:19:10;;;;;;;21.13;16.53;;;7.60;1.00;;;;;;5119682;28;20421;-39
2024/03/09 03:21:41;;;;;;;19.40;15.80;;;7.60;1.00;;;;;;5101072;28;20425;-41
2024/03/09 03:24:10;;;;;;;20.17;15.60;;;7.60;42.50;;;;;;5118254;28;20469;-42
2024/03/09 03:26:35;;;;;;;19.73;16.17;;;7.60;99.90;;;;;;5119552;28;20665;-41
2024/03/09 03:29:01;;;;;;;16.10;13.87;;;7.60;99.90;;;;;;5118994;28;20425;-42
2024/03/09 03:31:28;;;;;;;20.00;16.90;;;7.60;99.90;;;;;;5118617;28;20457;-42
2024/03/09 03:33:54;;;;;;;19.53;16.27;;;7.60;99.90;;;;;;5119061;28;20164;-41
2024/03/09 03:36:23;;;;;;;16.97;15.07;;;7.60;99.90;;;;;;5119207;28;20425;-40
2024/03/09 03:38:49;;;;;;;20.43;15.77;;;7.70;99.90;;;;;;5100323;28;20433;-41
2024/03/09 03:41:17;;;;;;;19.80;14.73;;;7.70;99.90;;;;;;5118699;28;20513;-41
2024/03/09 03:43:44;;;;;;;19.87;16.60;;;7.70;99.90;;;;;;5118358;28;20461;-40
2024/03/09 03:46:11;;;;;;;19.30;15.57;;;7.70;99.90;;;;;;5100850;28;20571;-40
2024/03/09 03:48:39;;;;;;;18.40;15.43;;;7.70;99.90;;;;;;5118553;28;20417;-42
2024/03/09 03:51:07;;;;;;;20.10;16.93;;;7.60;1.00;;;;;;5117750;28;20539;-41
2024/03/09 03:53:33;;;;;;;19.30;15.67;;;7.60;1.00;;;;;;5118355;28;20421;-41
2024/03/09 03:55:59;;;;;;;19.90;15.57;;;7.60;1.00;;;;;;5099710;28;20452;-41
2024/03/09 03:58:25;;;;;;;20.00;15.97;;;7.70;1.00;;;;;;5100650;28;20811;-41
2024/03/09 04:00:53;;;;;;;16.57;13.43;;;7.60;1.00;;;;;;5118198;28;20436;-40
2024/03/09 04:03:22;;;;;;;15.70;13.50;;;7.70;1.00;;;;;;5117779;28;20472;-41
2024/03/09 04:05:49;;;;;;;16.10;12.63;;;7.70;1.00;;;;;;5118219;28;20444;-41
2024/03/09 04:08:18;;;;;;;13.33;11.27;;;7.70;1.00;;;;;;5117724;28;20882;-40
2024/03/09 04:10:43;;;;;;;14.73;12.53;;;7.70;1.00;;;;;;5117543;28;20653;-43
2024/03/09 04:13:11;;;;;;;16.80;12.73;;;7.70;1.00;;;;;;5118411;28;20432;-43
2024/03/09 04:15:38;;;;;;;14.47;12.57;;;7.80;1.00;;;;;;5100074;28;20188;-41
2024/03/09 04:18:05;;;;;;;14.10;11.97;;;7.80;48.40;;;;;;5098783;28;20438;-42
2024/03/09 04:20:34;;;;;;;14.57;12.00;;;7.80;32.00;;;;;;5118635;28;20421;-42
2024/03/09 04:23:04;;;;;;;13.70;11.83;;;7.80;36.00;;;;;;5116887;28;20681;-42
2024/03/09 04:25:32;;;;;;;14.40;12.40;;;7.90;30.40;;;;;;5117129;28;20479;-42
2024/03/09 04:27:58;;;;;;;18.40;13.03;;;7.90;33.00;;;;;;5117182;28;20444;-43
2024/03/09 04:30:25;;;;;;;13.60;12.10;;;7.90;56.10;;;;;;5117300;28;20429;-41
2024/03/09 04:32:52;;;;;;;14.70;12.40;;;7.90;59.40;;;;;;5118268;28;20433;-39
2024/03/09 04:35:20;;;;;;;14.53;12.40;;;7.90;49.90;;;;;;5117957;28;20437;-40
2024/03/09 04:37:46;;;;;;;20.07;14.53;;;7.90;22.20;;;;;;5117102;28;20704;-41
2024/03/09 04:40:15;;;;;;;16.60;13.23;;;7.90;1.00;;;;;;5099538;28;20421;-42
2024/03/09 04:42:48;;;;;;;16.50;13.20;;;7.90;1.00;;;;;;5117427;28;20564;-42
2024/03/09 04:45:19;;;;;;;15.87;13.03;;;7.90;1.00;;;;;;5117783;28;20429;-40
2024/03/09 04:47:45;;;;;;;15.63;13.87;;;7.90;1.00;;;;;;5100154;28;20778;-42
2024/03/09 04:50:11;;;;;;;18.90;14.60;;;7.90;1.00;;;;;;5116093;28;20478;-41
2024/03/09 04:52:37;;;;;;;20.17;15.90;;;7.90;1.00;;;;;;5116808;28;20426;-42
2024/03/09 04:55:05;;;;;;;18.73;15.43;;;7.90;1.00;;;;;;5116644;28;20831;-41
2024/03/09 04:57:38;;;;;;;20.60;15.83;;;7.90;1.00;;;;;;5116139;28;20429;-41
2024/03/09 05:00:06;;;;;;;22.10;17.63;;;7.90;99.90;;;;;;5113057;28;20783;-41
2024/03/09 05:02:32;;;;;;;20.60;17.73;;;7.80;99.90;;;;;;5115371;28;20526;-40
2024/03/09 05:04:58;;;;;;;20.90;17.03;;;7.80;99.90;;;;;;5115880;28;20751;-40
2024/03/09 05:07:24;;;;;;;20.93;16.37;;;7.80;99.90;;;;;;5116837;28;20433;-40
2024/03/09 05:09:49;;;;;;;21.03;18.33;;;7.80;99.90;;;;;;5117480;28;20568;-40
2024/03/09 05:12:15;;;;;;;20.50;17.60;;;7.70;99.90;;;;;;5116947;28;20180;-42
2024/03/09 05:14:40;;;;;;;21.33;17.40;;;7.70;99.90;;;;;;5117333;28;20681;-41
2024/03/09 05:17:06;;;;;;;21.57;17.33;;;7.70;99.90;;;;;;5116584;28;20469;-42
2024/03/09 05:19:32;;;;;;;19.43;16.40;;;7.60;99.90;;;;;;5116531;28;20172;-41
2024/03/09 05:21:58;;;;;;;22.07;17.97;;;7.60;99.90;;;;;;5116881;28;20179;-40
2024/03/09 05:24:23;;;;;;;22.20;17.90;;;7.60;99.90;;;;;;5116163;28;20469;-43
2024/03/09 05:26:49;;;;;;;19.33;16.20;;;7.50;99.90;;;;;;5117190;28;20190;-41
2024/03/09 05:29:15;;;;;;;19.77;15.80;;;7.50;99.90;;;;;;5117059;28;20180;-40
2024/03/09 05:31:41;;;;;;;20.80;16.90;;;7.40;99.90;;;;;;5116141;28;20180;-40
2024/03/09 05:34:11;;;;;;;21.10;17.60;;;7.40;99.90;;;;;;5115169;28;20688;-41
2024/03/09 05:36:36;;;;;;;23.67;17.60;;;7.40;99.90;;;;;;5115696;28;20408;-42
2024/03/09 05:39:05;;;;;;;18.90;16.40;;;7.30;1.00;;;;;;5115874;28;20423;-40
2024/03/09 05:41:31;;;;;;;18.53;15.57;;;7.30;1.00;;;;;;5120930;28;20426;-41
2024/03/09 05:43:57;;;;;;;19.47;15.97;;;7.20;1.00;;;;;;5120000;28;20941;-41
2024/03/09 05:46:23;;;;;;;21.00;17.07;;;7.20;1.00;;;;;;5119849;28;20818;-45
2024/03/09 05:48:50;;;;;;;19.17;17.00;;;7.10;1.00;;;;;;5121151;28;20416;-41
2024/03/09 05:51:16;;;;;;;21.60;17.30;;;7.10;1.00;;;;;;5119762;28;20561;-40
2024/03/09 05:53:41;;;;;;;21.73;17.03;;;7.10;1.00;;;;;;5120097;28;20435;-41
2024/03/09 05:56:07;;;;;;;19.23;16.27;;;7.00;1.00;;;;;;5119345;28;20311;-40
2024/03/09 05:58:33;;;;;;;19.13;17.03;;;7.00;1.00;;;;;;5100005;28;20179;-41
2024/03/09 06:00:59;;;;;;;21.30;16.40;;;7.00;1.00;;;;;;5117289;28;20428;-40
2024/03/09 06:03:26;;;;;;;19.57;15.87;;;6.90;1.00;;;;;;5117281;28;20266;-43
2024/03/09 06:05:54;;;;;;;19.30;16.50;;;6.90;1.00;;;;;;5099121;28;20772;-43
2024/03/09 06:08:21;;;;;;;18.90;15.47;;;6.90;1.00;;;;;;5117117;28;20662;-41
2024/03/09 06:10:50;;;;;;;21.20;17.03;;;6.90;1.00;;;;;;5117586;28;20486;-41
2024/03/09 06:13:17;;;;;;;18.27;16.03;;;6.80;1.00;;;;;;5119661;28;20520;-41
2024/03/09 06:15:45;;;;;;;21.90;16.50;;;6.80;1.00;;;;;;5117349;28;20881;-40
2024/03/09 06:18:11;;;;;;;19.53;15.70;;;6.80;1.00;;;;;;5099581;28;20418;-42
2024/03/09 06:20:41;;;;;;;18.70;15.50;;;6.80;1.00;;;;;;5099541;28;20537;-43
2024/03/09 06:23:06;;;;;;;17.57;15.07;;;6.80;1.00;;;;;;5099371;28;20483;-42
2024/03/09 06:25:32;;;;;;;19.13;15.27;;;6.90;1.00;;;;;;5098126;28;20423;-41
2024/03/09 06:28:08;;;;;;;19.20;16.27;;;6.90;1.00;;;;;;5094450;28;20199;-41
2024/03/09 06:30:36;;;;;;;20.03;16.33;;;7.00;1.00;;;;;;5095030;28;20573;-41
2024/03/09 06:33:01;;;;;;;19.60;16.17;;;7.10;1.00;;;;;;5094759;28;20468;-41
2024/03/09 06:35:27;;;;;;;22.30;17.30;;;7.30;1.00;;;;;;5097904;28;20450;-42
2024/03/09 06:38:07;;;;;;;18.33;16.30;;;7.40;99.90;;;;;;5099064;28;20838;-41
2024/03/09 06:40:41;;;;;;;18.90;15.10;;;7.60;99.90;;;;;;5099060;28;20183;-43
2024/03/09 06:43:09;;;;;;;17.10;14.37;;;7.80;99.90;;;;;;5098420;28;20497;-42
2024/03/09 06:45:41;;;;;;;20.33;16.10;;;7.90;99.90;;;;;;5099162;28;20522;-42
2024/03/09 06:48:08;;;;;;;16.30;14.40;;;8.10;61.10;;;;;;5098607;28;20430;-42
2024/03/09 06:50:35;;;;;;;19.23;16.63;;;8.20;1.00;;;;;;5098942;28;20565;-41
2024/03/09 06:53:01;;;;;;;18.60;15.90;;;8.40;1.00;;;;;;5080094;28;20725;-44
2024/03/09 06:55:29;;;;;;;20.37;16.63;;;8.50;1.00;;;;;;5078607;28;20526;-41
2024/03/09 06:57:56;;;;;;;18.27;16.27;;;8.70;1.00;;;;;;5096034;28;20479;-40
2024/03/09 07:00:25;;;;;;;19.87;16.70;;;8.80;1.00;;;;;;5077892;28;20727;-41
2024/03/09 07:02:52;;;;;;;19.47;16.80;;;9.00;1.00;;;;;;5095131;28;20462;-41
2024/03/09 07:05:17;;;;;;;19.97;17.77;;;9.20;99.90;;;;;;5095908;28;20482;-43
2024/03/09 07:07:43;;;;;;;21.50;17.63;;;9.40;99.90;;;;;;5095753;28;20824;-41
2024/03/09 07:10:12;;;;;;;18.80;15.43;;;9.60;99.90;;;;;;5095140;28;20529;-42
2024/03/09 07:12:40;;;;;;;17.97;16.00;;;9.80;99.90;;;;;;5095671;28;20180;-42
2024/03/09 07:15:11;;;;;;;18.70;16.47;;;10.10;99.90;;;;;;5095264;28;20677;-43
2024/03/09 07:17:37;;;;;;;20.17;17.07;;;10.30;96.50;;;;;;5095698;28;20448;-41
2024/03/09 07:20:11;;;;;;;18.47;15.70;;;10.60;32.90;;;;;;5093902;28;20411;-42
2024/03/09 07:22:40;;;;;;;18.30;15.50;;;10.90;1.00;;;;;;5095147;28;20197;-42
2024/03/09 07:25:10;;;;;;;19.40;17.33;;;11.20;1.00;;;;;;5096836;28;20580;-41
2024/03/09 07:27:38;;;;;;;18.10;15.50;;;11.40;1.00;;;;;;5096534;28;20410;-41
2024/03/09 07:30:08;;;;;;;18.67;16.67;;;11.70;1.00;;;;;;5097045;28;20434;-42
2024/03/09 07:32:34;;;;;;;16.67;14.87;;;11.90;1.00;;;;;;5080804;28;20429;-43
2024/03/09 07:35:00;;;;;;;16.07;14.37;;;12.20;1.00;;;;;;5098621;28;20402;-43
2024/03/09 07:37:26;;;;;;;18.00;14.73;;;12.40;1.00;;;;;;5097808;28;20402;-41
2024/03/09 07:39:53;;;;;;;19.87;17.37;;;12.70;1.00;;;;;;5079758;28;20549;-44
2024/03/09 07:42:19;;;;;;;16.83;15.03;;;12.90;1.00;;;;;;5098284;28;20441;-42
2024/03/09 07:44:45;;;;;;;18.17;15.60;;;13.20;1.00;;;;;;5078513;28;20778;-44
2024/03/09 07:47:11;;;;;;;17.70;14.53;;;13.40;1.00;;;;;;5076421;28;20172;-41
2024/03/09 07:49:37;;;;;;;17.77;15.87;;;13.70;1.00;;;;;;5096315;28;20421;-41
2024/03/09 07:52:05;;;;;;;15.43;13.83;;;13.90;1.00;;;;;;5094050;28;20265;-41
2024/03/09 07:54:31;;;;;;;16.17;14.10;;;14.20;1.00;;;;;;5096347;28;20426;-40
2024/03/09 07:56:57;;;;;;;15.30;12.43;;;14.50;1.00;;;;;;5096609;28;20970;-42
2024/03/09 07:59:23;;;;;;;15.33;13.73;;;14.70;1.00;;;;;;5095208;28;20746;-41
2024/03/09 08:01:49;;;;;;;14.87;13.17;;;15.00;1.00;;;;;;5075080;28;20177;-43
2024/03/09 08:04:14;;;;;;;15.03;13.43;;;15.20;1.00;;;;;;5074813;28;20478;-42
2024/03/09 08:06:43;;;;;;;15.10;13.60;;;15.50;1.00;;;;;;5094008;28;20324;-41
2024/03/09 08:09:13;;;;;;;14.17;12.73;;;15.60;1.00;;;;;;5094247;28;20273;-44
2024/03/09 08:11:39;;;;;;;14.63;13.13;;;15.80;1.00;;;;;;5076979;28;20430;-42
2024/03/09 08:14:05;;;;;;;13.43;12.07;;;16.00;1.00;;;;;;5093856;28;20692;-41
2024/03/09 08:16:33;;;;;;;13.20;11.80;;;16.30;1.00;;;;;;5077232;28;20415;-41
2024/03/09 08:18:58;;;;;;;13.30;11.90;;;16.50;1.00;;;;;;5092171;28;20173;-41
2024/03/09 08:21:24;;;;;;;13.07;11.77;;;16.80;1.00;;;;;;5093659;28;20441;-41
2024/03/09 08:23:51;;;;;;;13.50;12.13;;;17.10;1.00;;;;;;5093707;28;20381;-42
2024/03/09 08:26:16;;;;;;;12.83;11.53;;;17.30;1.00;;;;;;5093268;28;20176;-42
2024/03/09 08:28:42;;;;;;;12.90;11.53;;;17.40;1.00;;;;;;5092305;28;20411;-42
2024/03/09 08:31:08;;;;;;;14.07;12.57;;;17.70;1.00;;;;;;5092300;28;20188;-45
2024/03/09 08:33:33;;;;;;;11.40;10.20;;;18.00;1.00;;;;;;5091803;28;20176;-47
2024/03/09 08:36:02;;;;;;;17.20;7.50;;;18.30;1.00;;;;;;5092744;28;20547;-44
2024/03/09 08:38:28;;;;;;;13.93;7.67;;;19.10;1.00;;;;;;5092747;28;20448;-41
2024/03/09 08:40:53;;;;;;;15.40;7.27;;;19.70;1.00;;;;;;5076767;28;20437;-46
2024/03/09 08:43:19;;;;;;;16.23;7.43;;;20.30;1.00;;;;;;5093677;28;20382;-45
2024/03/09 08:45:47;;;;;;;15.40;7.60;;;20.90;1.00;;;;;;5094732;28;20188;-44
2024/03/09 08:48:13;;;;;;;17.10;7.57;;;21.40;1.00;;;;;;5095100;28;20196;-43
2024/03/09 08:50:39;;;;;;;16.67;7.80;;;21.90;1.00;;;;;;5095984;28;20681;-43
2024/03/09 08:53:05;;;;;;;12.90;7.47;;;22.30;1.00;;;;;;5093930;28;20523;-46
2024/03/09 08:55:32;;;;;;;10.80;5.90;;;22.70;1.00;;;;;;5093266;28;20509;-40
2024/03/09 08:58:00;;;;;;;9.97;7.30;;;23.00;1.00;;;;;;5093592;28;20169;-41
2024/03/09 09:00:26;;;;;;;12.20;8.17;;;23.40;1.00;;;;;;5094094;28;20459;-43
2024/03/09 09:02:56;;;;;;;8.83;7.10;;;23.70;1.00;;;;;;5095017;28;20498;-43
2024/03/09 09:05:22;;;;;;;8.00;5.97;;;23.90;1.00;;;;;;5093799;28;20228;-44
2024/03/09 09:07:48;;;;;;;8.03;5.97;;;24.20;99.90;;;;;;5093645;28;20417;-43
2024/03/09 09:10:14;;;;;;;9.80;7.50;;;24.50;99.90;;;;;;5092648;28;20426;-43
2024/03/09 09:12:41;;;;;;;9.07;6.87;;;24.70;99.90;;;;;;5094102;28;20453;-42
2024/03/09 09:15:11;;;;;;;9.23;6.63;;;24.90;99.90;;;;;;5093220;28;20437;-43
2024/03/09 09:17:37;;;;;;;10.63;7.77;;;25.10;99.90;;;;;;5093483;28;20529;-43
2024/03/09 09:20:14;;;;;;;7.70;7.00;;;25.30;99.90;;;;;;5094225;28;20505;-42
2024/03/09 09:22:42;;;;;;;8.17;7.10;;;25.50;99.90;;;;;;5094244;28;20458;-44
2024/03/09 09:25:12;;;;;;;8.60;6.50;;;25.70;99.90;;;;;;5093322;28;20429;-45
2024/03/09 09:27:41;;;;;;;8.80;7.93;;;25.90;99.90;;;;;;5094182;28;20427;-46
2024/03/09 09:30:08;;;;;;;7.70;6.90;;;26.20;99.90;;;;;;5093536;28;20422;-43
2024/03/09 09:32:34;;;;;;;8.20;7.50;;;26.30;99.90;;;;;;5094201;28;20914;-49
2024/03/09 09:35:02;;;;;;;8.03;7.13;;;26.50;99.90;;;;;;5092983;28;20468;-44
2024/03/09 09:37:28;;;;;;;8.37;6.90;;;26.70;99.90;;;;;;5092536;28;20671;-46
2024/03/09 09:39:55;;;;;;;7.50;6.80;;;26.80;99.90;;;;;;5091408;28;20448;-46
2024/03/09 09:42:21;;;;;;;9.13;7.47;;;27.10;99.90;;;;;;5093359;28;20488;-44
2024/03/09 09:44:48;;;;;;;7.27;6.60;;;27.20;1.00;;;;;;5074490;28;20492;-42
2024/03/09 09:47:14;;;;;;;7.00;6.40;;;27.30;1.00;;;;;;5074513;28;20491;-43
2024/03/09 09:49:40;;;;;;;6.27;5.73;;;27.40;99.90;;;;;;5091865;28;20475;-42
2024/03/09 09:52:07;;;;;;;5.87;5.37;;;27.70;99.90;;;;;;5093894;28;20433;-43
2024/03/09 09:54:33;;;;;;;6.93;6.30;;;27.90;99.90;;;;;;5093929;28;20807;-45
2024/03/09 09:56:59;;;;;;;6.83;6.13;;;28.10;99.90;;;;;;5075650;28;20408;-46
2024/03/09 09:59:25;;;;;;;6.90;4.77;;;28.30;99.90;;;;;;5094112;28;20412;-43
2024/03/09 10:01:51;;;;;;;5.70;5.20;;;28.50;99.90;;;;;;5094464;28;20608;-43
2024/03/09 10:04:17;;;;;;;5.97;5.47;;;28.70;99.90;;;;;;5094055;28;20449;-43
2024/03/09 10:06:43;;;;;;;6.50;5.97;;;28.70;99.90;;;;;;5093855;28;20880;-45
2024/03/09 10:09:09;;;;;;;7.80;7.00;;;28.80;99.90;;;;;;5091840;28;20262;-42
2024/03/09 10:11:34;;;;;;;8.30;6.43;;;28.80;99.90;;;;;;5089857;28;20405;-42
2024/03/09 10:14:01;;;;;;;6.60;6.00;;;28.80;99.90;;;;;;5092464;28;20204;-44
2024/03/09 10:16:31;;;;;;;7.10;6.50;;;28.90;99.90;;;;;;5091575;28;20168;-43
2024/03/09 10:18:58;;;;;;;6.47;5.87;;;29.10;99.90;;;;;;5092549;28;20589;-43
2024/03/09 10:21:37;;;;;;;6.47;5.90;;;29.30;99.90;;;;;;5092139;28;20397;-42
2024/03/09 10:24:04;;;;;;;7.03;6.33;;;29.40;99.90;;;;;;5092893;28;20470;-42
2024/03/09 10:26:30;;;;;;;6.20;5.70;;;29.50;99.90;;;;;;5095393;28;20462;-43
2024/03/09 10:29:00;;;;;;;7.00;6.30;;;29.60;99.90;;;;;;5079932;28;20414;-44
2024/03/09 10:31:26;;;;;;;5.80;5.20;;;30.00;99.90;;;;;;5099317;28;20175;-42
2024/03/09 10:33:53;;;;;;;5.27;4.80;;;30.30;99.90;;;;;;5099561;28;20436;-42
2024/03/09 10:36:23;;;;;;;5.30;4.77;;;30.50;99.90;;;;;;5096699;28;20651;-44
2024/03/09 10:38:51;;;;;;;5.47;4.97;;;30.70;99.90;;;;;;5097996;28;20851;-41
2024/03/09 10:41:19;;;;;;;5.87;4.87;;;31.00;99.90;;;;;;5096183;28;20465;-41
2024/03/09 10:43:45;;;;;;;5.90;5.37;;;31.10;99.90;;;;;;5079017;28;20401;-43
2024/03/09 10:46:15;;;;;;;5.10;4.40;;;31.40;99.90;;;;;;5078813;28;20397;-43
2024/03/09 10:48:43;;;;;;;5.03;4.40;;;31.60;99.90;;;;;;5095425;28;20212;-43
2024/03/09 10:51:19;;;;;;;4.43;4.00;;;31.60;99.90;;;;;;5078183;28;20459;-43
2024/03/09 10:53:56;;;;;;;4.37;3.97;;;31.80;99.90;;;;;;5095576;28;20473;-44
2024/03/09 10:56:23;;;;;;;5.40;4.90;;;31.70;99.90;;;;;;5093885;28;20404;-46
2024/03/09 10:58:52;;;;;;;5.83;5.07;;;31.80;99.90;;;;;;5096509;28;20683;-43
2024/03/09 11:01:22;;;;;;;5.30;4.50;;;32.00;99.90;;;;;;5080857;28;20811;-44
2024/03/09 11:03:49;;;;;;;5.37;4.87;;;32.10;99.90;;;;;;5098798;28;20477;-46
2024/03/09 11:06:17;;;;;;;4.67;4.27;;;32.00;99.90;;;;;;5098503;28;20412;-43
2024/03/09 11:09:06;;;;;;;4.90;4.10;;;32.10;99.90;;;;;;5098869;28;20430;-40
2024/03/09 11:11:32;;;;;;;5.97;5.10;;;31.90;99.90;;;;;;5080499;28;20512;-41
2024/03/09 11:14:03;;;;;;;5.13;4.73;;;31.50;99.90;;;;;;5096997;28;20483;-42
2024/03/09 11:16:29;;;;;;;5.90;5.30;;;31.50;99.90;;;;;;5081265;28;20493;-41
2024/03/09 11:18:55;;;;;;;5.30;4.80;;;31.80;99.90;;;;;;5093886;28;20511;-44
2024/03/09 11:21:31;;;;;;;4.83;4.17;;;32.00;99.90;;;;;;5095392;28;20794;-42
2024/03/09 11:23:59;;;;;;;4.40;4.00;;;32.30;99.90;;;;;;5077933;28;20440;-42
2024/03/09 11:26:25;;;;;;;5.63;5.13;;;32.60;99.90;;;;;;5099699;28;20447;-43
2024/03/09 11:28:56;;;;;;;3.80;3.50;;;32.70;99.90;;;;;;5105909;28;20718;-43
2024/03/09 11:31:28;;;;;;;4.17;3.77;;;33.00;99.90;;;;;;5117591;28;20425;-42
2024/03/09 11:34:26;;;;;;;4.60;4.20;;;33.50;99.90;;;;;;5099145;28;20464;-42
2024/03/09 11:36:52;;;;;;;5.60;5.10;;;33.90;99.90;;;;;;5115051;28;20421;-44
2024/03/09 11:39:23;;;;;;;5.77;5.27;;;34.10;99.90;;;;;;5116067;28;20694;-44
2024/03/09 11:41:54;;;;;;;5.50;5.00;;;34.20;99.90;;;;;;5115780;28;20392;-41
2024/03/09 11:44:27;;;;;;;4.80;4.40;;;34.00;99.90;;;;;;5099269;28;20437;-42
2024/03/09 11:46:52;;;;;;;5.90;5.40;;;34.00;99.90;;;;;;5117076;28;20796;-45
2024/03/09 11:49:18;;;;;;;5.93;5.43;;;34.20;99.90;;;;;;5117687;28;20472;-42
2024/03/09 11:51:44;;;;;;;6.73;6.10;;;34.10;99.90;;;;;;5117201;28;20222;-48
2024/03/09 11:54:12;;;;;;;5.50;5.10;;;33.90;99.90;;;;;;5116108;28;20200;-43
2024/03/09 11:56:38;;;;;;;4.33;4.00;;;33.70;99.90;;;;;;5114011;28;20426;-44
2024/03/09 11:59:07;;;;;;;5.33;4.93;;;33.70;99.90;;;;;;5115302;28;20412;-43
2024/03/09 12:01:36;;;;;;;5.67;5.17;;;33.70;99.90;;;;;;5114375;28;20730;-44
2024/03/09 12:04:03;;;;;;;5.00;4.60;;;33.60;99.90;;;;;;5095067;28;20802;-42
2024/03/09 12:06:29;;;;;;;5.10;4.70;;;33.50;99.90;;;;;;5114131;28;20472;-41
2024/03/09 12:08:56;;;;;;;5.60;5.10;;;33.30;99.90;;;;;;5115155;28;20400;-43
2024/03/09 12:11:22;;;;;;;5.57;5.07;;;33.30;99.90;;;;;;5114925;28;20436;-44
2024/03/09 12:13:49;;;;;;;4.90;4.50;;;33.30;99.90;;;;;;5113317;28;20601;-43
2024/03/09 12:16:18;;;;;;;4.70;4.17;;;33.30;99.90;;;;;;5115363;28;20512;-43
2024/03/09 12:18:45;;;;;;;4.43;4.13;;;33.60;99.90;;;;;;5098179;28;20454;-42
2024/03/09 12:21:15;;;;;;;5.10;4.60;;;33.80;99.90;;;;;;5116954;28;20430;-44
2024/03/09 12:23:41;;;;;;;5.53;5.03;;;33.80;99.90;;;;;;5097051;28;20853;-44
2024/03/09 12:26:09;;;;;;;5.60;5.10;;;33.80;99.90;;;;;;5113889;28;20866;-43
2024/03/09 12:28:34;;;;;;;5.60;5.10;;;33.60;99.90;;;;;;5097120;28;20409;-42
2024/03/09 12:31:00;;;;;;;5.80;5.30;;;33.60;99.90;;;;;;5114558;28;20429;-43
2024/03/09 12:33:27;;;;;;;6.17;5.57;;;33.60;99.90;;;;;;5080595;28;20207;-43
2024/03/09 12:35:59;;;;;;;4.80;4.40;;;33.70;99.90;;;;;;5115942;28;20167;-41
2024/03/09 12:38:25;;;;;;;6.10;5.60;;;33.80;99.90;;;;;;5096814;28;20507;-45
2024/03/09 12:40:54;;;;;;;4.40;4.07;;;33.80;99.90;;;;;;5115406;28;20501;-46
2024/03/09 12:43:23;;;;;;;4.50;4.10;;;33.90;99.90;;;;;;5115256;28;20877;-43